sensor_id;sensor_type;location;lat;lon;timestamp;P1;durP1;ratioP1;P2;durP2;ratioP2
78796;SDS011;68145;52.514;13.460;2023-03-01T00:01:00;16.75;;;9.13;;
78796;SDS011;68145;52.514;13.460;2023-03-01T00:03:26;18.60;;;9.40;;
78796;SDS011;68145;52.514;13.460;2023-03-01T00:05:52;22.50;;;9.63;;
78796;SDS011;68145;52.514;13.460;2023-03-01T00:08:18;17.63;;;7.93;;
78796;SDS011;68145;52.514;13.460;2023-03-01T00:10:44;15.85;;;7.22;;
78796;SDS011;68145;52.514;13.460;2023-03-01T00:13:10;19.27;;;8.68;;
78796;SDS011;68145;52.514;13.460;2023-03-01T00:15:39;20.98;;;9.15;;
78796;SDS011;68145;52.514;13.460;2023-03-01T00:18:06;16.33;;;8.13;;
78796;SDS011;68145;52.514;13.460;2023-03-01T00:20:33;16.55;;;9.02;;
78796;SDS011;68145;52.514;13.460;2023-03-01T00:22:59;17.23;;;8.63;;
78796;SDS011;68145;52.514;13.460;2023-03-01T00:25:25;18.70;;;8.90;;
78796;SDS011;68145;52.514;13.460;2023-03-01T00:27:51;16.80;;;8.07;;
78796;SDS011;68145;52.514;13.460;2023-03-01T00:30:17;16.30;;;7.95;;
78796;SDS011;68145;52.514;13.460;2023-03-01T00:32:44;13.35;;;7.43;;
78796;SDS011;68145;52.514;13.460;2023-03-01T00:35:10;16.88;;;8.43;;
78796;SDS011;68145;52.514;13.460;2023-03-01T00:37:36;20.23;;;9.20;;
78796;SDS011;68145;52.514;13.460;2023-03-01T00:40:02;13.05;;;7.65;;
78796;SDS011;68145;52.514;13.460;2023-03-01T00:42:31;17.77;;;9.63;;
78796;SDS011;68145;52.514;13.460;2023-03-01T00:44:57;12.68;;;8.10;;
78796;SDS011;68145;52.514;13.460;2023-03-01T00:47:23;14.50;;;7.60;;
78796;SDS011;68145;52.514;13.460;2023-03-01T00:49:49;16.55;;;8.25;;
78796;SDS011;68145;52.514;13.460;2023-03-01T00:52:15;15.07;;;8.38;;
78796;SDS011;68145;52.514;13.460;2023-03-01T00:54:41;16.33;;;8.00;;
78796;SDS011;68145;52.514;13.460;2023-03-01T00:57:07;17.08;;;8.98;;
78796;SDS011;68145;52.514;13.460;2023-03-01T00:59:33;13.30;;;8.13;;
78796;SDS011;68145;52.514;13.460;2023-03-01T01:01:59;15.27;;;7.38;;
78796;SDS011;68145;52.514;13.460;2023-03-01T01:04:26;15.88;;;7.82;;
78796;SDS011;68145;52.514;13.460;2023-03-01T01:06:52;16.20;;;9.10;;
78796;SDS011;68145;52.514;13.460;2023-03-01T01:09:18;13.63;;;6.82;;
78796;SDS011;68145;52.514;13.460;2023-03-01T01:11:45;13.63;;;7.95;;
78796;SDS011;68145;52.514;13.460;2023-03-01T01:14:11;14.00;;;7.65;;
78796;SDS011;68145;52.514;13.460;2023-03-01T01:16:37;13.18;;;7.72;;
78796;SDS011;68145;52.514;13.460;2023-03-01T01:19:03;14.85;;;7.25;;
78796;SDS011;68145;52.514;13.460;2023-03-01T01:21:30;18.98;;;8.25;;
78796;SDS011;68145;52.514;13.460;2023-03-01T01:23:56;14.73;;;9.05;;
78796;SDS011;68145;52.514;13.460;2023-03-01T01:26:27;19.17;;;8.13;;
78796;SDS011;68145;52.514;13.460;2023-03-01T01:28:54;13.88;;;6.68;;
78796;SDS011;68145;52.514;13.460;2023-03-01T01:31:21;14.88;;;8.90;;
78796;SDS011;68145;52.514;13.460;2023-03-01T01:33:48;18.55;;;7.60;;
78796;SDS011;68145;52.514;13.460;2023-03-01T01:36:15;19.83;;;8.77;;
78796;SDS011;68145;52.514;13.460;2023-03-01T01:38:41;20.30;;;8.77;;
78796;SDS011;68145;52.514;13.460;2023-03-01T01:41:08;23.67;;;10.85;;
78796;SDS011;68145;52.514;13.460;2023-03-01T01:43:43;19.83;;;9.95;;
78796;SDS011;68145;52.514;13.460;2023-03-01T01:46:27;16.90;;;8.82;;
78796;SDS011;68145;52.514;13.460;2023-03-01T01:48:56;14.32;;;8.38;;
78796;SDS011;68145;52.514;13.460;2023-03-01T01:51:25;17.02;;;9.45;;
78796;SDS011;68145;52.514;13.460;2023-03-01T01:53:54;15.90;;;8.65;;
78796;SDS011;68145;52.514;13.460;2023-03-01T01:56:22;16.42;;;8.85;;
78796;SDS011;68145;52.514;13.460;2023-03-01T01:58:49;18.15;;;10.15;;
78796;SDS011;68145;52.514;13.460;2023-03-01T02:01:15;16.88;;;9.32;;
78796;SDS011;68145;52.514;13.460;2023-03-01T02:03:42;18.75;;;9.43;;
78796;SDS011;68145;52.514;13.460;2023-03-01T02:06:28;13.15;;;8.27;;
78796;SDS011;68145;52.514;13.460;2023-03-01T02:08:59;18.40;;;8.50;;
78796;SDS011;68145;52.514;13.460;2023-03-01T02:11:29;15.52;;;9.35;;
78796;SDS011;68145;52.514;13.460;2023-03-01T02:13:55;17.80;;;9.32;;
78796;SDS011;68145;52.514;13.460;2023-03-01T02:16:21;18.08;;;9.02;;
78796;SDS011;68145;52.514;13.460;2023-03-01T02:18:48;16.88;;;9.10;;
78796;SDS011;68145;52.514;13.460;2023-03-01T02:23:44;19.25;;;8.75;;
78796;SDS011;68145;52.514;13.460;2023-03-01T02:29:02;14.90;;;8.07;;
78796;SDS011;68145;52.514;13.460;2023-03-01T02:31:30;18.77;;;9.25;;
78796;SDS011;68145;52.514;13.460;2023-03-01T02:34:14;15.73;;;8.50;;
78796;SDS011;68145;52.514;13.460;2023-03-01T02:36:43;21.27;;;10.30;;
78796;SDS011;68145;52.514;13.460;2023-03-01T02:39:11;16.83;;;9.18;;
78796;SDS011;68145;52.514;13.460;2023-03-01T02:41:43;17.13;;;9.93;;
78796;SDS011;68145;52.514;13.460;2023-03-01T02:44:09;16.02;;;8.57;;
78796;SDS011;68145;52.514;13.460;2023-03-01T02:46:41;15.02;;;8.70;;
78796;SDS011;68145;52.514;13.460;2023-03-01T02:49:27;17.80;;;8.70;;
78796;SDS011;68145;52.514;13.460;2023-03-01T02:54:31;20.60;;;9.23;;
78796;SDS011;68145;52.514;13.460;2023-03-01T02:56:59;13.48;;;7.88;;
78796;SDS011;68145;52.514;13.460;2023-03-01T02:59:27;16.52;;;8.57;;
78796;SDS011;68145;52.514;13.460;2023-03-01T03:01:54;18.63;;;8.38;;
78796;SDS011;68145;52.514;13.460;2023-03-01T03:04:20;16.67;;;8.25;;
78796;SDS011;68145;52.514;13.460;2023-03-01T03:06:47;15.13;;;7.63;;
78796;SDS011;68145;52.514;13.460;2023-03-01T03:09:14;20.40;;;8.98;;
78796;SDS011;68145;52.514;13.460;2023-03-01T03:11:41;14.43;;;7.50;;
78796;SDS011;68145;52.514;13.460;2023-03-01T03:14:11;13.73;;;8.18;;
78796;SDS011;68145;52.514;13.460;2023-03-01T03:16:41;18.70;;;8.68;;
78796;SDS011;68145;52.514;13.460;2023-03-01T03:19:07;20.33;;;8.70;;
78796;SDS011;68145;52.514;13.460;2023-03-01T03:21:34;15.60;;;8.43;;
78796;SDS011;68145;52.514;13.460;2023-03-01T03:24:00;17.25;;;8.10;;
78796;SDS011;68145;52.514;13.460;2023-03-01T03:26:26;17.92;;;8.80;;
78796;SDS011;68145;52.514;13.460;2023-03-01T03:28:52;14.23;;;7.93;;
78796;SDS011;68145;52.514;13.460;2023-03-01T03:31:18;15.55;;;9.02;;
78796;SDS011;68145;52.514;13.460;2023-03-01T03:33:44;15.05;;;7.78;;
78796;SDS011;68145;52.514;13.460;2023-03-01T03:36:14;16.80;;;8.75;;
78796;SDS011;68145;52.514;13.460;2023-03-01T03:38:42;15.13;;;8.60;;
78796;SDS011;68145;52.514;13.460;2023-03-01T03:41:09;16.40;;;8.68;;
78796;SDS011;68145;52.514;13.460;2023-03-01T03:43:36;22.55;;;8.90;;
78796;SDS011;68145;52.514;13.460;2023-03-01T03:46:03;15.68;;;8.60;;
78796;SDS011;68145;52.514;13.460;2023-03-01T03:48:31;15.88;;;8.32;;
78796;SDS011;68145;52.514;13.460;2023-03-01T03:50:57;13.70;;;7.43;;
78796;SDS011;68145;52.514;13.460;2023-03-01T03:53:23;18.17;;;8.27;;
78796;SDS011;68145;52.514;13.460;2023-03-01T03:55:50;18.95;;;8.98;;
78796;SDS011;68145;52.514;13.460;2023-03-01T03:58:16;16.35;;;8.50;;
78796;SDS011;68145;52.514;13.460;2023-03-01T04:00:44;16.25;;;8.02;;
78796;SDS011;68145;52.514;13.460;2023-03-01T04:03:12;14.13;;;8.48;;
78796;SDS011;68145;52.514;13.460;2023-03-01T04:05:39;18.02;;;8.52;;
78796;SDS011;68145;52.514;13.460;2023-03-01T04:08:05;21.02;;;11.00;;
78796;SDS011;68145;52.514;13.460;2023-03-01T04:10:38;17.40;;;10.05;;
78796;SDS011;68145;52.514;13.460;2023-03-01T04:13:05;18.63;;;9.15;;
78796;SDS011;68145;52.514;13.460;2023-03-01T04:15:32;19.38;;;11.15;;
78796;SDS011;68145;52.514;13.460;2023-03-01T04:17:59;20.85;;;10.00;;
78796;SDS011;68145;52.514;13.460;2023-03-01T04:20:26;20.55;;;9.15;;
78796;SDS011;68145;52.514;13.460;2023-03-01T04:23:04;14.57;;;9.60;;
78796;SDS011;68145;52.514;13.460;2023-03-01T04:25:54;21.00;;;10.38;;
78796;SDS011;68145;52.514;13.460;2023-03-01T04:28:22;20.30;;;10.13;;
78796;SDS011;68145;52.514;13.460;2023-03-01T04:30:49;19.13;;;10.55;;
78796;SDS011;68145;52.514;13.460;2023-03-01T04:33:15;17.30;;;10.32;;
78796;SDS011;68145;52.514;13.460;2023-03-01T04:35:42;20.95;;;9.55;;
78796;SDS011;68145;52.514;13.460;2023-03-01T04:38:08;17.38;;;10.90;;
78796;SDS011;68145;52.514;13.460;2023-03-01T04:40:34;20.20;;;11.23;;
78796;SDS011;68145;52.514;13.460;2023-03-01T04:43:00;21.67;;;11.68;;
78796;SDS011;68145;52.514;13.460;2023-03-01T04:45:27;22.27;;;9.50;;
78796;SDS011;68145;52.514;13.460;2023-03-01T04:47:53;19.77;;;10.27;;
78796;SDS011;68145;52.514;13.460;2023-03-01T04:50:19;18.73;;;11.18;;
78796;SDS011;68145;52.514;13.460;2023-03-01T04:52:47;18.17;;;10.80;;
78796;SDS011;68145;52.514;13.460;2023-03-01T04:55:13;18.10;;;10.20;;
78796;SDS011;68145;52.514;13.460;2023-03-01T04:57:39;20.83;;;10.30;;
78796;SDS011;68145;52.514;13.460;2023-03-01T05:00:06;20.45;;;11.55;;
78796;SDS011;68145;52.514;13.460;2023-03-01T05:02:45;18.30;;;9.77;;
78796;SDS011;68145;52.514;13.460;2023-03-01T05:05:13;17.98;;;10.20;;
78796;SDS011;68145;52.514;13.460;2023-03-01T05:07:39;16.45;;;9.35;;
78796;SDS011;68145;52.514;13.460;2023-03-01T05:10:05;21.67;;;10.98;;
78796;SDS011;68145;52.514;13.460;2023-03-01T05:12:31;18.90;;;10.90;;
78796;SDS011;68145;52.514;13.460;2023-03-01T05:14:57;18.02;;;9.98;;
78796;SDS011;68145;52.514;13.460;2023-03-01T05:17:23;20.88;;;11.32;;
78796;SDS011;68145;52.514;13.460;2023-03-01T05:19:49;20.80;;;11.88;;
78796;SDS011;68145;52.514;13.460;2023-03-01T05:22:15;24.15;;;12.20;;
78796;SDS011;68145;52.514;13.460;2023-03-01T05:24:41;20.48;;;10.55;;
78796;SDS011;68145;52.514;13.460;2023-03-01T05:27:07;20.15;;;10.38;;
78796;SDS011;68145;52.514;13.460;2023-03-01T05:29:34;17.80;;;10.70;;
78796;SDS011;68145;52.514;13.460;2023-03-01T05:32:00;20.90;;;11.20;;
78796;SDS011;68145;52.514;13.460;2023-03-01T05:34:32;20.13;;;10.25;;
78796;SDS011;68145;52.514;13.460;2023-03-01T05:36:58;19.35;;;10.23;;
78796;SDS011;68145;52.514;13.460;2023-03-01T05:39:25;20.35;;;11.13;;
78796;SDS011;68145;52.514;13.460;2023-03-01T05:41:54;18.13;;;10.25;;
78796;SDS011;68145;52.514;13.460;2023-03-01T05:44:21;21.05;;;11.20;;
78796;SDS011;68145;52.514;13.460;2023-03-01T05:46:47;19.58;;;10.70;;
78796;SDS011;68145;52.514;13.460;2023-03-01T05:49:14;23.00;;;11.13;;
78796;SDS011;68145;52.514;13.460;2023-03-01T05:51:41;20.30;;;10.85;;
78796;SDS011;68145;52.514;13.460;2023-03-01T05:54:08;20.05;;;10.63;;
78796;SDS011;68145;52.514;13.460;2023-03-01T05:56:34;22.25;;;11.43;;
78796;SDS011;68145;52.514;13.460;2023-03-01T05:59:01;23.33;;;11.57;;
78796;SDS011;68145;52.514;13.460;2023-03-01T06:01:27;27.05;;;12.07;;
78796;SDS011;68145;52.514;13.460;2023-03-01T06:03:54;21.55;;;10.95;;
78796;SDS011;68145;52.514;13.460;2023-03-01T06:06:20;18.95;;;10.75;;
78796;SDS011;68145;52.514;13.460;2023-03-01T06:08:46;21.15;;;11.02;;
78796;SDS011;68145;52.514;13.460;2023-03-01T06:11:13;19.10;;;11.63;;
78796;SDS011;68145;52.514;13.460;2023-03-01T06:13:39;20.00;;;10.63;;
78796;SDS011;68145;52.514;13.460;2023-03-01T06:16:05;18.02;;;10.15;;
78796;SDS011;68145;52.514;13.460;2023-03-01T06:18:31;24.58;;;12.68;;
78796;SDS011;68145;52.514;13.460;2023-03-01T06:20:57;30.15;;;14.55;;
78796;SDS011;68145;52.514;13.460;2023-03-01T06:23:24;27.02;;;13.05;;
78796;SDS011;68145;52.514;13.460;2023-03-01T06:25:50;27.52;;;14.80;;
78796;SDS011;68145;52.514;13.460;2023-03-01T06:28:16;24.33;;;13.40;;
78796;SDS011;68145;52.514;13.460;2023-03-01T06:30:42;28.02;;;13.68;;
78796;SDS011;68145;52.514;13.460;2023-03-01T06:33:08;25.52;;;13.57;;
78796;SDS011;68145;52.514;13.460;2023-03-01T06:35:35;22.02;;;13.52;;
78796;SDS011;68145;52.514;13.460;2023-03-01T06:38:01;26.30;;;13.82;;
78796;SDS011;68145;52.514;13.460;2023-03-01T06:40:28;23.88;;;13.10;;
78796;SDS011;68145;52.514;13.460;2023-03-01T06:42:56;24.88;;;13.13;;
78796;SDS011;68145;52.514;13.460;2023-03-01T06:45:22;27.45;;;13.15;;
78796;SDS011;68145;52.514;13.460;2023-03-01T06:47:48;23.73;;;12.70;;
78796;SDS011;68145;52.514;13.460;2023-03-01T06:50:15;25.20;;;15.60;;
78796;SDS011;68145;52.514;13.460;2023-03-01T06:52:42;21.65;;;13.38;;
78796;SDS011;68145;52.514;13.460;2023-03-01T06:55:10;21.67;;;12.35;;
78796;SDS011;68145;52.514;13.460;2023-03-01T06:57:36;24.73;;;13.50;;
78796;SDS011;68145;52.514;13.460;2023-03-01T07:00:08;32.08;;;14.02;;
78796;SDS011;68145;52.514;13.460;2023-03-01T07:02:35;23.15;;;12.30;;
78796;SDS011;68145;52.514;13.460;2023-03-01T07:05:01;21.42;;;12.35;;
78796;SDS011;68145;52.514;13.460;2023-03-01T07:07:27;25.65;;;13.45;;
78796;SDS011;68145;52.514;13.460;2023-03-01T07:09:53;27.45;;;14.50;;
78796;SDS011;68145;52.514;13.460;2023-03-01T07:12:19;39.08;;;17.92;;
78796;SDS011;68145;52.514;13.460;2023-03-01T07:14:45;25.20;;;14.05;;
78796;SDS011;68145;52.514;13.460;2023-03-01T07:17:11;26.15;;;14.65;;
78796;SDS011;68145;52.514;13.460;2023-03-01T07:19:38;21.33;;;12.88;;
78796;SDS011;68145;52.514;13.460;2023-03-01T07:22:04;25.20;;;14.45;;
78796;SDS011;68145;52.514;13.460;2023-03-01T07:24:32;30.33;;;16.08;;
78796;SDS011;68145;52.514;13.460;2023-03-01T07:26:58;25.65;;;14.15;;
78796;SDS011;68145;52.514;13.460;2023-03-01T07:29:25;24.33;;;14.00;;
78796;SDS011;68145;52.514;13.460;2023-03-01T07:31:51;29.33;;;14.32;;
78796;SDS011;68145;52.514;13.460;2023-03-01T07:34:17;31.55;;;15.32;;
78796;SDS011;68145;52.514;13.460;2023-03-01T07:36:43;28.10;;;15.13;;
78796;SDS011;68145;52.514;13.460;2023-03-01T07:39:10;27.92;;;14.45;;
78796;SDS011;68145;52.514;13.460;2023-03-01T07:41:36;25.83;;;13.27;;
78796;SDS011;68145;52.514;13.460;2023-03-01T07:44:03;22.02;;;14.15;;
78796;SDS011;68145;52.514;13.460;2023-03-01T07:46:29;28.30;;;14.88;;
78796;SDS011;68145;52.514;13.460;2023-03-01T07:48:55;21.10;;;12.70;;
78796;SDS011;68145;52.514;13.460;2023-03-01T07:51:22;26.13;;;13.43;;
78796;SDS011;68145;52.514;13.460;2023-03-01T07:53:49;24.85;;;14.27;;
78796;SDS011;68145;52.514;13.460;2023-03-01T07:56:15;28.77;;;13.77;;
78796;SDS011;68145;52.514;13.460;2023-03-01T07:58:43;21.60;;;12.80;;
78796;SDS011;68145;52.514;13.460;2023-03-01T08:01:11;23.33;;;13.32;;
78796;SDS011;68145;52.514;13.460;2023-03-01T08:03:37;19.30;;;10.77;;
78796;SDS011;68145;52.514;13.460;2023-03-01T08:06:04;21.10;;;11.45;;
78796;SDS011;68145;52.514;13.460;2023-03-01T08:08:31;23.05;;;12.27;;
78796;SDS011;68145;52.514;13.460;2023-03-01T08:11:00;22.35;;;11.07;;
78796;SDS011;68145;52.514;13.460;2023-03-01T08:13:27;16.75;;;10.02;;
78796;SDS011;68145;52.514;13.460;2023-03-01T08:15:53;15.55;;;9.05;;
78796;SDS011;68145;52.514;13.460;2023-03-01T08:18:20;17.77;;;9.02;;
78796;SDS011;68145;52.514;13.460;2023-03-01T08:20:46;16.77;;;8.57;;
78796;SDS011;68145;52.514;13.460;2023-03-01T08:23:12;12.05;;;7.47;;
78796;SDS011;68145;52.514;13.460;2023-03-01T08:25:38;12.07;;;6.80;;
78796;SDS011;68145;52.514;13.460;2023-03-01T08:28:05;11.27;;;6.43;;
78796;SDS011;68145;52.514;13.460;2023-03-01T08:30:31;11.93;;;6.80;;
78796;SDS011;68145;52.514;13.460;2023-03-01T08:32:57;12.90;;;6.80;;
78796;SDS011;68145;52.514;13.460;2023-03-01T08:35:23;12.38;;;6.78;;
78796;SDS011;68145;52.514;13.460;2023-03-01T08:37:49;13.98;;;6.88;;
78796;SDS011;68145;52.514;13.460;2023-03-01T08:40:15;13.98;;;7.22;;
78796;SDS011;68145;52.514;13.460;2023-03-01T08:42:41;15.23;;;7.95;;
78796;SDS011;68145;52.514;13.460;2023-03-01T08:45:08;12.07;;;6.85;;
78796;SDS011;68145;52.514;13.460;2023-03-01T08:47:34;9.63;;;5.85;;
78796;SDS011;68145;52.514;13.460;2023-03-01T08:50:00;15.32;;;7.60;;
78796;SDS011;68145;52.514;13.460;2023-03-01T08:52:26;11.68;;;6.60;;
78796;SDS011;68145;52.514;13.460;2023-03-01T08:54:52;9.50;;;6.10;;
78796;SDS011;68145;52.514;13.460;2023-03-01T08:57:19;15.90;;;6.28;;
78796;SDS011;68145;52.514;13.460;2023-03-01T08:59:45;13.68;;;6.68;;
78796;SDS011;68145;52.514;13.460;2023-03-01T09:02:12;12.90;;;6.70;;
78796;SDS011;68145;52.514;13.460;2023-03-01T09:04:39;14.52;;;6.88;;
78796;SDS011;68145;52.514;13.460;2023-03-01T09:07:05;12.30;;;6.18;;
78796;SDS011;68145;52.514;13.460;2023-03-01T09:09:31;14.23;;;6.90;;
78796;SDS011;68145;52.514;13.460;2023-03-01T09:11:58;11.40;;;6.32;;
78796;SDS011;68145;52.514;13.460;2023-03-01T09:14:24;16.88;;;7.15;;
78796;SDS011;68145;52.514;13.460;2023-03-01T09:16:50;14.38;;;6.68;;
78796;SDS011;68145;52.514;13.460;2023-03-01T09:19:16;14.07;;;6.55;;
78796;SDS011;68145;52.514;13.460;2023-03-01T09:21:42;11.60;;;7.30;;
78796;SDS011;68145;52.514;13.460;2023-03-01T09:26:43;11.43;;;5.47;;
78796;SDS011;68145;52.514;13.460;2023-03-01T09:29:11;13.60;;;5.40;;
78796;SDS011;68145;52.514;13.460;2023-03-01T09:31:37;6.95;;;4.03;;
78796;SDS011;68145;52.514;13.460;2023-03-01T09:34:03;10.07;;;4.20;;
78796;SDS011;68145;52.514;13.460;2023-03-01T09:36:30;9.23;;;4.13;;
78796;SDS011;68145;52.514;13.460;2023-03-01T09:38:57;6.63;;;3.75;;
78796;SDS011;68145;52.514;13.460;2023-03-01T09:44:24;9.13;;;4.22;;
78796;SDS011;68145;52.514;13.460;2023-03-01T09:46:53;8.82;;;4.20;;
78796;SDS011;68145;52.514;13.460;2023-03-01T09:49:26;8.50;;;4.78;;
78796;SDS011;68145;52.514;13.460;2023-03-01T09:54:27;8.10;;;4.03;;
78796;SDS011;68145;52.514;13.460;2023-03-01T09:57:01;11.13;;;5.22;;
78796;SDS011;68145;52.514;13.460;2023-03-01T10:02:10;6.38;;;4.32;;
78796;SDS011;68145;52.514;13.460;2023-03-01T10:04:45;7.38;;;4.68;;
78796;SDS011;68145;52.514;13.460;2023-03-01T10:07:24;10.93;;;5.00;;
78796;SDS011;68145;52.514;13.460;2023-03-01T10:09:53;7.90;;;4.13;;
78796;SDS011;68145;52.514;13.460;2023-03-01T10:12:20;10.85;;;5.57;;
78796;SDS011;68145;52.514;13.460;2023-03-01T10:19:46;9.75;;;4.60;;
78796;SDS011;68145;52.514;13.460;2023-03-01T10:22:13;8.60;;;4.07;;
78796;SDS011;68145;52.514;13.460;2023-03-01T10:24:40;10.40;;;5.38;;
78796;SDS011;68145;52.514;13.460;2023-03-01T10:27:22;8.13;;;4.80;;
78796;SDS011;68145;52.514;13.460;2023-03-01T10:32:18;10.13;;;4.72;;
78796;SDS011;68145;52.514;13.460;2023-03-01T10:34:44;9.40;;;4.63;;
78796;SDS011;68145;52.514;13.460;2023-03-01T10:37:14;11.73;;;4.63;;
78796;SDS011;68145;52.514;13.460;2023-03-01T10:42:30;10.52;;;4.10;;
78796;SDS011;68145;52.514;13.460;2023-03-01T10:44:57;7.82;;;4.10;;
78796;SDS011;68145;52.514;13.460;2023-03-01T10:47:26;6.75;;;3.28;;
78796;SDS011;68145;52.514;13.460;2023-03-01T10:49:57;6.13;;;3.60;;
78796;SDS011;68145;52.514;13.460;2023-03-01T10:52:26;10.20;;;3.80;;
78796;SDS011;68145;52.514;13.460;2023-03-01T10:54:54;6.35;;;3.75;;
78796;SDS011;68145;52.514;13.460;2023-03-01T11:02:49;9.95;;;4.07;;
78796;SDS011;68145;52.514;13.460;2023-03-01T11:05:17;7.53;;;3.75;;
78796;SDS011;68145;52.514;13.460;2023-03-01T11:07:48;6.32;;;3.10;;
78796;SDS011;68145;52.514;13.460;2023-03-01T11:10:17;6.65;;;4.03;;
78796;SDS011;68145;52.514;13.460;2023-03-01T11:12:44;5.63;;;3.35;;
78796;SDS011;68145;52.514;13.460;2023-03-01T11:15:19;6.75;;;2.92;;
78796;SDS011;68145;52.514;13.460;2023-03-01T11:17:46;4.30;;;2.92;;
78796;SDS011;68145;52.514;13.460;2023-03-01T11:22:40;3.60;;;2.10;;
78796;SDS011;68145;52.514;13.460;2023-03-01T11:25:11;8.35;;;2.80;;
78796;SDS011;68145;52.514;13.460;2023-03-01T11:27:41;10.88;;;5.10;;
78796;SDS011;68145;52.514;13.460;2023-03-01T11:30:20;4.95;;;3.08;;
78796;SDS011;68145;52.514;13.460;2023-03-01T11:32:50;15.52;;;7.03;;
78796;SDS011;68145;52.514;13.460;2023-03-01T11:35:22;5.70;;;3.25;;
78796;SDS011;68145;52.514;13.460;2023-03-01T11:40:41;6.47;;;3.00;;
78796;SDS011;68145;52.514;13.460;2023-03-01T11:50:48;7.90;;;2.35;;
78796;SDS011;68145;52.514;13.460;2023-03-01T11:56:00;3.35;;;1.83;;
78796;SDS011;68145;52.514;13.460;2023-03-01T11:58:34;8.60;;;2.85;;
78796;SDS011;68145;52.514;13.460;2023-03-01T12:01:16;9.85;;;2.92;;
78796;SDS011;68145;52.514;13.460;2023-03-01T12:14:28;4.22;;;2.35;;
78796;SDS011;68145;52.514;13.460;2023-03-01T12:19:39;7.90;;;2.30;;
78796;SDS011;68145;52.514;13.460;2023-03-01T12:22:20;5.72;;;2.15;;
78796;SDS011;68145;52.514;13.460;2023-03-01T12:30:25;5.45;;;2.33;;
78796;SDS011;68145;52.514;13.460;2023-03-01T12:45:48;6.72;;;2.50;;
78796;SDS011;68145;52.514;13.460;2023-03-01T12:50:43;7.72;;;2.78;;
78796;SDS011;68145;52.514;13.460;2023-03-01T12:53:25;5.13;;;2.80;;
78796;SDS011;68145;52.514;13.460;2023-03-01T12:55:58;11.35;;;3.55;;
78796;SDS011;68145;52.514;13.460;2023-03-01T13:01:22;5.50;;;2.90;;
78796;SDS011;68145;52.514;13.460;2023-03-01T13:09:19;3.55;;;2.38;;
78796;SDS011;68145;52.514;13.460;2023-03-01T13:11:48;5.60;;;2.53;;
78796;SDS011;68145;52.514;13.460;2023-03-01T13:16:50;8.45;;;3.83;;
78796;SDS011;68145;52.514;13.460;2023-03-01T13:19:20;5.18;;;3.05;;
78796;SDS011;68145;52.514;13.460;2023-03-01T13:21:47;4.38;;;2.40;;
78796;SDS011;68145;52.514;13.460;2023-03-01T13:24:27;7.72;;;3.05;;
78796;SDS011;68145;52.514;13.460;2023-03-01T13:29:48;5.10;;;3.08;;
78796;SDS011;68145;52.514;13.460;2023-03-01T13:32:20;11.48;;;4.03;;
78796;SDS011;68145;52.514;13.460;2023-03-01T13:34:47;6.03;;;2.75;;
78796;SDS011;68145;52.514;13.460;2023-03-01T13:37:29;5.22;;;2.65;;
78796;SDS011;68145;52.514;13.460;2023-03-01T13:39:57;5.22;;;2.35;;
78796;SDS011;68145;52.514;13.460;2023-03-01T13:42:43;5.07;;;2.63;;
78796;SDS011;68145;52.514;13.460;2023-03-01T13:47:46;4.28;;;2.75;;
78796;SDS011;68145;52.514;13.460;2023-03-01T13:50:22;6.22;;;2.40;;
78796;SDS011;68145;52.514;13.460;2023-03-01T13:52:53;4.85;;;2.55;;
78796;SDS011;68145;52.514;13.460;2023-03-01T13:57:53;5.78;;;2.65;;
78796;SDS011;68145;52.514;13.460;2023-03-01T14:00:31;3.72;;;2.70;;
78796;SDS011;68145;52.514;13.460;2023-03-01T14:05:27;4.47;;;2.67;;
78796;SDS011;68145;52.514;13.460;2023-03-01T14:07:54;5.30;;;2.65;;
78796;SDS011;68145;52.514;13.460;2023-03-01T14:10:20;5.10;;;2.42;;
78796;SDS011;68145;52.514;13.460;2023-03-01T14:15:33;6.22;;;3.08;;
78796;SDS011;68145;52.514;13.460;2023-03-01T14:20:33;5.40;;;2.53;;
78796;SDS011;68145;52.514;13.460;2023-03-01T14:23:08;6.43;;;2.33;;
78796;SDS011;68145;52.514;13.460;2023-03-01T14:25:35;5.07;;;2.70;;
78796;SDS011;68145;52.514;13.460;2023-03-01T14:28:23;4.45;;;2.58;;
78796;SDS011;68145;52.514;13.460;2023-03-01T14:30:50;6.20;;;3.45;;
78796;SDS011;68145;52.514;13.460;2023-03-01T14:33:30;7.00;;;2.60;;
78796;SDS011;68145;52.514;13.460;2023-03-01T14:36:02;7.72;;;4.07;;
78796;SDS011;68145;52.514;13.460;2023-03-01T14:38:32;6.70;;;2.78;;
78796;SDS011;68145;52.514;13.460;2023-03-01T14:41:00;4.70;;;2.63;;
78796;SDS011;68145;52.514;13.460;2023-03-01T14:43:27;6.68;;;3.13;;
78796;SDS011;68145;52.514;13.460;2023-03-01T14:45:55;5.93;;;3.60;;
78796;SDS011;68145;52.514;13.460;2023-03-01T14:48:21;5.60;;;3.08;;
78796;SDS011;68145;52.514;13.460;2023-03-01T14:50:47;4.07;;;2.20;;
78796;SDS011;68145;52.514;13.460;2023-03-01T14:53:18;6.03;;;2.75;;
78796;SDS011;68145;52.514;13.460;2023-03-01T14:55:46;3.90;;;2.72;;
78796;SDS011;68145;52.514;13.460;2023-03-01T14:58:13;5.57;;;3.10;;
78796;SDS011;68145;52.514;13.460;2023-03-01T15:00:42;6.55;;;3.10;;
78796;SDS011;68145;52.514;13.460;2023-03-01T15:03:13;5.50;;;2.70;;
78796;SDS011;68145;52.514;13.460;2023-03-01T15:05:42;5.68;;;3.03;;
78796;SDS011;68145;52.514;13.460;2023-03-01T15:08:11;5.38;;;3.17;;
78796;SDS011;68145;52.514;13.460;2023-03-01T15:10:55;6.50;;;3.53;;
78796;SDS011;68145;52.514;13.460;2023-03-01T15:13:22;5.00;;;2.53;;
78796;SDS011;68145;52.514;13.460;2023-03-01T15:15:49;4.28;;;2.70;;
78796;SDS011;68145;52.514;13.460;2023-03-01T15:18:18;5.53;;;2.90;;
78796;SDS011;68145;52.514;13.460;2023-03-01T15:20:45;5.07;;;2.28;;
78796;SDS011;68145;52.514;13.460;2023-03-01T15:23:19;4.25;;;2.75;;
78796;SDS011;68145;52.514;13.460;2023-03-01T15:25:46;6.85;;;3.75;;
78796;SDS011;68145;52.514;13.460;2023-03-01T15:28:19;13.55;;;6.57;;
78796;SDS011;68145;52.514;13.460;2023-03-01T15:30:46;6.88;;;3.20;;
78796;SDS011;68145;52.514;13.460;2023-03-01T15:33:36;4.20;;;2.70;;
78796;SDS011;68145;52.514;13.460;2023-03-01T15:36:30;6.32;;;3.10;;
78796;SDS011;68145;52.514;13.460;2023-03-01T15:43:48;4.38;;;3.00;;
78796;SDS011;68145;52.514;13.460;2023-03-01T15:46:16;6.57;;;2.90;;
78796;SDS011;68145;52.514;13.460;2023-03-01T15:48:46;6.53;;;2.50;;
78796;SDS011;68145;52.514;13.460;2023-03-01T15:51:14;7.43;;;4.10;;
78796;SDS011;68145;52.514;13.460;2023-03-01T15:53:41;7.68;;;2.65;;
78796;SDS011;68145;52.514;13.460;2023-03-01T15:56:07;5.80;;;2.95;;
78796;SDS011;68145;52.514;13.460;2023-03-01T15:58:33;4.55;;;3.15;;
78796;SDS011;68145;52.514;13.460;2023-03-01T16:00:59;5.75;;;2.97;;
78796;SDS011;68145;52.514;13.460;2023-03-01T16:03:25;7.38;;;3.22;;
78796;SDS011;68145;52.514;13.460;2023-03-01T16:05:51;5.78;;;2.90;;
78796;SDS011;68145;52.514;13.460;2023-03-01T16:08:18;5.47;;;2.80;;
78796;SDS011;68145;52.514;13.460;2023-03-01T16:10:44;8.77;;;2.67;;
78796;SDS011;68145;52.514;13.460;2023-03-01T16:13:11;5.50;;;2.70;;
78796;SDS011;68145;52.514;13.460;2023-03-01T16:15:38;5.35;;;2.58;;
78796;SDS011;68145;52.514;13.460;2023-03-01T16:18:04;8.90;;;2.88;;
78796;SDS011;68145;52.514;13.460;2023-03-01T16:20:31;6.00;;;3.53;;
78796;SDS011;68145;52.514;13.460;2023-03-01T16:23:01;6.18;;;3.22;;